Time;durP1;ratioP1;P1;durP2;ratioP2;P2;SDS_P1;SDS_P2;PMS_P1;PMS_P2;Temp;Humidity;BMP_temperature;BMP_pressure;BME280_temperature;BME280_humidity;BME280_pressure;Samples;Min_cycle;Max_cycle;Signal;HPM_P1;HPM_P2
2021/07/15 09:23:52;;;;;;;16.45;3.35;;;24.70;94.90;;;;;;5121886;27;20401;-53
2021/07/15 09:26:19;;;;;;;13.48;2.95;;;25.00;94.40;;;;;;5121704;28;20104;-52
2021/07/15 09:28:47;;;;;;;13.40;3.33;;;25.10;94.20;;;;;;5121698;28;20012;-54
2021/07/15 09:31:15;;;;;;;13.60;2.97;;;25.10;94.10;;;;;;5121379;28;20032;-56
2021/07/15 09:33:42;;;;;;;12.95;3.20;;;25.10;94.00;;;;;;5121453;28;20284;-53
2021/07/15 09:36:20;;;;;;;14.32;3.20;;;25.10;94.00;;;;;;5121342;28;20038;-52
2021/07/15 09:38:49;;;;;;;13.77;3.47;;;25.10;93.90;;;;;;5121504;28;20023;-60
2021/07/15 09:41:17;;;;;;;14.50;3.45;;;25.10;93.70;;;;;;5121391;28;20022;-50
2021/07/15 09:43:45;;;;;;;22.10;3.88;;;25.10;93.70;;;;;;5121365;28;20354;-56
2021/07/15 09:46:12;;;;;;;21.27;4.00;;;25.10;93.60;;;;;;5121070;28;20372;-51
2021/07/15 09:48:42;;;;;;;25.38;3.75;;;25.10;93.50;;;;;;5121436;28;20016;-52
2021/07/15 09:51:12;;;;;;;15.30;3.20;;;25.10;93.50;;;;;;5121014;28;20035;-53
2021/07/15 09:53:41;;;;;;;13.40;2.92;;;25.10;93.50;;;;;;5121101;28;20019;-54
2021/07/15 09:56:18;;;;;;;11.30;3.45;;;25.10;93.40;;;;;;5121016;28;20051;-52
2021/07/15 09:58:50;;;;;;;15.77;3.10;;;25.10;93.40;;;;;;5121123;28;20024;-52
2021/07/15 10:01:22;;;;;;;17.17;3.23;;;25.10;93.40;;;;;;5120935;28;20034;-52
2021/07/15 10:03:50;;;;;;;98.20;9.70;;;25.10;93.30;;;;;;5120907;28;20303;-49
2021/07/15 10:06:18;;;;;;;26.42;4.72;;;25.10;93.50;;;;;;5121125;28;20069;-51
2021/07/15 10:08:46;;;;;;;25.60;4.40;;;25.10;93.20;;;;;;5120772;28;20027;-52
2021/07/15 10:11:16;;;;;;;16.08;3.70;;;25.10;93.30;;;;;;5120707;28;20036;-48
2021/07/15 10:13:45;;;;;;;19.67;3.55;;;25.10;93.20;;;;;;5120706;28;20028;-53
2021/07/15 10:16:12;;;;;;;17.88;3.53;;;25.10;93.20;;;;;;5120726;28;20020;-51
2021/07/15 10:18:45;;;;;;;19.90;3.55;;;25.10;93.10;;;;;;5120589;28;20215;-55
2021/07/15 10:21:14;;;;;;;17.08;3.20;;;25.10;93.00;;;;;;5120597;28;20016;-48
2021/07/15 10:23:48;;;;;;;14.68;3.33;;;25.10;92.90;;;;;;5112940;28;20052;-55
2021/07/15 10:26:15;;;;;;;17.50;3.20;;;25.10;92.90;;;;;;5106967;28;20316;-58
2021/07/15 10:28:46;;;;;;;14.90;3.03;;;25.10;92.80;;;;;;5106975;28;20148;-55
2021/07/15 10:31:14;;;;;;;9.48;2.80;;;25.10;92.90;;;;;;5106649;28;20036;-56
2021/07/15 10:33:45;;;;;;;10.98;3.00;;;25.10;92.90;;;;;;5106885;28;20028;-54
2021/07/15 10:36:12;;;;;;;10.07;3.17;;;25.10;93.00;;;;;;5106772;28;20296;-55
2021/07/15 10:38:44;;;;;;;13.70;3.28;;;25.10;92.90;;;;;;5106550;28;20046;-56
2021/07/15 10:41:13;;;;;;;15.27;3.67;;;25.10;92.90;;;;;;5106666;28;20332;-58
2021/07/15 10:43:41;;;;;;;18.23;3.90;;;25.10;92.80;;;;;;5106583;28;20032;-51
2021/07/15 10:46:08;;;;;;;18.77;3.65;;;25.10;92.70;;;;;;5106304;28;20103;-56
2021/07/15 10:48:37;;;;;;;15.23;3.80;;;25.10;92.50;;;;;;5106490;28;20023;-51
2021/07/15 10:51:05;;;;;;;14.85;3.42;;;25.10;92.40;;;;;;5106355;28;20023;-54
2021/07/15 10:53:35;;;;;;;13.60;3.47;;;25.10;92.30;;;;;;5106273;28;20071;-52
2021/07/15 10:56:03;;;;;;;17.20;4.43;;;25.10;92.00;;;;;;5106309;28;20020;-53
2021/07/15 10:58:53;;;;;;;16.20;4.82;;;25.10;92.00;;;;;;5106505;28;20215;-59
2021/07/15 11:01:40;;;;;;;15.10;4.57;;;25.10;92.10;;;;;;5106181;28;20066;-51
2021/07/15 11:04:23;;;;;;;19.05;4.65;;;25.00;92.30;;;;;;5106088;28;20036;-54
2021/07/15 11:06:52;;;;;;;18.27;4.22;;;25.00;92.50;;;;;;5106329;28;20300;-60
2021/07/15 11:09:31;;;;;;;15.50;4.57;;;25.10;92.60;;;;;;5106011;28;20047;-53
2021/07/15 11:11:59;;;;;;;12.82;4.43;;;25.10;92.70;;;;;;5106118;28;20035;-53
2021/07/15 11:14:38;;;;;;;13.65;4.70;;;25.10;92.80;;;;;;5105917;28;20032;-55
2021/07/15 11:17:30;;;;;;;19.17;5.03;;;25.10;92.80;;;;;;5106093;28;20311;-53
2021/07/15 11:20:11;;;;;;;14.65;4.70;;;25.10;93.00;;;;;;5105842;28;20091;-56
2021/07/15 11:22:58;;;;;;;16.35;5.57;;;25.10;92.80;;;;;;5105740;28;20059;-56
2021/07/15 11:25:28;;;;;;;19.95;5.72;;;25.30;92.70;;;;;;5092626;28;20032;-59
2021/07/15 11:28:10;;;;;;;15.20;6.70;;;25.50;92.60;;;;;;5106182;28;20095;-55
2021/07/15 11:30:36;;;;;;;;;;;25.60;92.60;;;;;;5106316;28;20016;-55
2021/07/15 11:33:18;;;;;;;19.23;9.07;;;25.70;92.00;;;;;;5106110;28;19916;-57
2021/07/15 11:36:09;;;;;;;24.50;11.38;;;25.90;91.80;;;;;;5104527;28;20388;-56
2021/07/15 11:38:39;;;;;;;19.35;9.20;;;26.00;91.60;;;;;;5105496;28;20030;-55
2021/07/15 11:41:14;;;;;;;17.20;7.30;;;26.10;91.40;;;;;;5105400;28;20016;-55
2021/07/15 11:43:57;;;;;;;21.42;6.22;;;26.10;91.30;;;;;;5105460;28;20026;-57
2021/07/15 11:46:30;;;;;;;17.38;5.75;;;26.20;91.10;;;;;;5105381;28;20020;-60
2021/07/15 11:49:04;;;;;;;;;;;26.20;91.00;;;;;;5105928;28;20019;-55
2021/07/15 11:52:01;;;;;;;17.02;5.47;;;26.30;90.90;;;;;;5105035;28;19919;-52
2021/07/15 11:54:44;;;;;;;16.05;5.05;;;26.40;90.80;;;;;;5105029;28;20020;-58
2021/07/15 11:57:13;;;;;;;15.65;5.43;;;26.50;90.80;;;;;;5105363;28;20323;-54
2021/07/15 11:59:51;;;;;;;13.98;4.47;;;26.60;90.70;;;;;;5105037;28;20012;-57
2021/07/15 12:02:39;;;;;;;15.20;4.20;;;26.60;90.70;;;;;;5105102;28;20031;-55
2021/07/15 12:05:36;;;;;;;13.70;4.25;;;26.60;90.70;;;;;;5105133;28;20051;-56
2021/07/15 12:08:13;;;;;;;13.75;4.63;;;26.60;90.80;;;;;;5104516;28;20104;-57
2021/07/15 12:10:46;;;;;;;16.27;4.85;;;26.60;90.90;;;;;;5104581;28;20028;-55
2021/07/15 12:13:18;;;;;;;15.50;4.85;;;26.60;90.90;;;;;;5105107;28;20375;-55
2021/07/15 12:15:47;;;;;;;17.35;4.65;;;26.60;90.90;;;;;;5103568;28;20144;-51
2021/07/15 12:18:21;;;;;;;17.13;4.72;;;26.60;90.80;;;;;;5105092;28;20324;-53
2021/07/15 12:20:58;;;;;;;18.05;4.63;;;26.60;90.70;;;;;;5104508;28;20034;-57
2021/07/15 12:23:32;;;;;;;12.90;4.40;;;26.60;90.50;;;;;;5104501;28;20044;-53
2021/07/15 12:25:59;;;;;;;14.82;3.83;;;26.60;90.60;;;;;;5104371;28;20020;-53
2021/07/15 12:28:29;;;;;;;16.25;4.00;;;26.70;90.50;;;;;;5104562;28;20012;-56
2021/07/15 12:31:03;;;;;;;11.90;3.85;;;26.60;90.40;;;;;;5104362;28;20267;-53
2021/07/15 12:33:41;;;;;;;12.32;3.92;;;26.60;90.60;;;;;;5104324;28;20344;-54
2021/07/15 12:36:19;;;;;;;11.93;3.60;;;26.60;90.30;;;;;;5104377;28;20016;-51
2021/07/15 12:38:51;;;;;;;9.27;3.85;;;26.60;90.70;;;;;;5104187;28;20039;-56
2021/07/15 12:41:25;;;;;;;16.60;4.53;;;26.50;90.70;;;;;;5104505;28;20196;-54
2021/07/15 12:44:14;;;;;;;16.75;4.15;;;26.50;91.10;;;;;;5104110;28;20242;-54
2021/07/15 12:46:46;;;;;;;16.02;4.78;;;26.50;90.70;;;;;;5104282;28;20039;-51
2021/07/15 12:49:14;;;;;;;17.85;3.80;;;26.60;90.80;;;;;;5104126;28;20024;-53
2021/07/15 12:51:48;;;;;;;17.60;4.28;;;26.60;90.80;;;;;;5104178;28;20032;-57
2021/07/15 12:54:35;;;;;;;14.90;4.15;;;26.60;90.70;;;;;;5104203;28;20057;-58
2021/07/15 12:57:07;;;;;;;14.90;4.32;;;26.60;90.60;;;;;;5104338;28;20028;-55
2021/07/15 12:59:35;;;;;;;46.40;7.38;;;26.60;90.60;;;;;;5104353;28;20016;-57
2021/07/15 13:02:02;;;;;;;22.70;4.68;;;26.70;90.60;;;;;;5104180;28;20035;-55
2021/07/15 13:04:32;;;;;;;18.08;4.50;;;26.70;90.10;;;;;;5104058;28;20024;-54
2021/07/15 13:07:04;;;;;;;18.52;4.25;;;26.80;90.50;;;;;;5104342;28;20037;-52
2021/07/15 13:15:21;;;;;;;17.98;4.50;;;26.80;90.50;;;;;;5061782;28;20021;-58
2021/07/15 13:17:47;;;;;;;18.05;4.78;;;26.90;90.60;;;;;;5086862;28;20220;-52
2021/07/15 13:20:17;;;;;;;17.30;4.50;;;26.90;90.30;;;;;;5104077;28;20027;-54
2021/07/15 13:22:46;;;;;;;15.93;4.57;;;27.00;89.90;;;;;;5103893;28;20156;-52
2021/07/15 13:25:15;;;;;;;14.95;4.43;;;27.10;89.90;;;;;;5103806;28;20345;-54
2021/07/15 13:27:43;;;;;;;21.17;4.03;;;27.20;89.20;;;;;;5104361;28;20028;-57
2021/07/15 13:30:12;;;;;;;13.23;4.13;;;27.20;89.50;;;;;;5103600;28;20027;-55
2021/07/15 13:32:39;;;;;;;14.60;3.53;;;27.30;89.20;;;;;;5104041;28;20326;-48
2021/07/15 13:35:12;;;;;;;22.63;4.25;;;27.30;88.00;;;;;;5103765;28;20106;-55
2021/07/15 13:37:40;;;;;;;14.18;3.30;;;27.40;89.20;;;;;;5103806;28;20035;-52
2021/07/15 13:40:16;;;;;;;13.30;3.38;;;27.50;88.70;;;;;;5102456;28;20043;-54
2021/07/15 13:42:43;;;;;;;14.95;3.08;;;27.60;88.00;;;;;;5103414;28;20188;-53
2021/07/15 13:45:12;;;;;;;13.40;3.22;;;27.60;85.10;;;;;;5103320;28;20023;-48
2021/07/15 13:47:44;;;;;;;14.55;3.30;;;27.60;84.70;;;;;;5103702;28;20032;-49
2021/07/15 13:50:11;;;;;;;;;;;27.60;86.30;;;;;;5104120;28;20339;-52
2021/07/15 13:52:39;;;;;;;15.13;3.30;;;27.60;86.60;;;;;;5103811;28;20085;-51
2021/07/15 13:55:10;;;;;;;13.55;3.53;;;27.60;86.60;;;;;;5103712;28;20016;-55
2021/07/15 13:57:45;;;;;;;11.70;3.50;;;27.60;85.90;;;;;;5103876;28;20354;-51
2021/07/15 14:00:13;;;;;;;17.38;3.92;;;27.60;85.60;;;;;;5107359;28;20012;-53
2021/07/15 14:02:42;;;;;;;13.38;3.50;;;27.60;85.80;;;;;;5107790;28;20077;-49
2021/07/15 14:05:10;;;;;;;15.73;4.03;;;27.60;86.40;;;;;;5107151;28;20016;-47
2021/07/15 14:07:37;;;;;;;13.25;3.10;;;27.60;87.00;;;;;;5107714;28;20214;-52
2021/07/15 14:10:08;;;;;;;13.27;3.53;;;27.60;86.90;;;;;;5107202;28;20358;-54
2021/07/15 14:12:35;;;;;;;13.50;3.67;;;27.60;87.20;;;;;;5107363;28;20339;-50
2021/07/15 14:15:04;;;;;;;15.77;3.85;;;27.60;87.30;;;;;;5107114;28;20008;-47
2021/07/15 14:17:30;;;;;;;14.07;3.63;;;27.60;87.50;;;;;;5107180;28;20145;-49
2021/07/15 14:19:57;;;;;;;16.10;3.88;;;27.60;87.90;;;;;;5107012;28;20024;-55
2021/07/15 14:22:25;;;;;;;15.25;3.92;;;27.60;88.10;;;;;;5106919;28;20059;-57
2021/07/15 14:24:52;;;;;;;17.13;8.07;;;27.70;88.40;;;;;;5107035;28;20028;-47
2021/07/15 14:27:22;;;;;;;14.60;4.28;;;27.60;88.10;;;;;;5107106;28;20028;-54
2021/07/15 14:29:50;;;;;;;15.50;4.40;;;27.70;88.10;;;;;;5106825;28;20031;-45
2021/07/15 14:32:17;;;;;;;17.58;4.30;;;27.70;88.40;;;;;;5106697;28;20028;-53
2021/07/15 14:34:45;;;;;;;13.90;3.83;;;27.70;88.20;;;;;;5106862;28;20260;-49
2021/07/15 14:37:13;;;;;;;15.70;4.32;;;27.80;88.00;;;;;;5107142;28;20023;-52
2021/07/15 14:39:43;;;;;;;14.20;4.00;;;27.80;88.70;;;;;;5106085;28;20054;-55
2021/07/15 14:42:09;;;;;;;12.25;4.40;;;27.80;87.30;;;;;;5106678;28;20216;-52
